createdAt,value
2019-03-18T00:00:49.471Z,6.63
2019-03-18T00:01:49.483Z,6.66
2019-03-18T00:02:49.460Z,6.67
2019-03-18T00:03:49.457Z,6.59
2019-03-18T00:04:49.424Z,6.62
2019-03-18T00:05:49.414Z,6.62
2019-03-18T00:06:49.396Z,6.59
2019-03-18T00:07:49.414Z,6.60
2019-03-18T00:08:49.398Z,6.56
2019-03-18T00:09:49.365Z,6.62
2019-03-18T00:10:49.354Z,6.62
2019-03-18T00:11:49.342Z,6.63
2019-03-18T00:12:51.972Z,6.62
2019-03-18T00:13:49.346Z,6.65
2019-03-18T00:15:00.420Z,6.63
2019-03-18T00:15:50.299Z,6.65
2019-03-18T00:16:49.288Z,6.66
2019-03-18T00:17:49.282Z,6.66
2019-03-18T00:18:49.283Z,6.65
2019-03-18T00:19:49.270Z,6.66
2019-03-18T00:20:49.238Z,6.67
2019-03-18T00:21:49.232Z,6.65
2019-03-18T00:22:49.236Z,6.63
2019-03-18T00:23:49.227Z,6.59
2019-03-18T00:24:49.196Z,6.53
2019-03-18T00:25:49.190Z,6.52
2019-03-18T00:26:49.207Z,6.55
2019-03-18T00:27:49.170Z,6.49
2019-03-18T00:28:49.176Z,6.52
2019-03-18T00:29:49.153Z,6.48
2019-03-18T00:30:49.183Z,6.45
2019-03-18T00:31:49.129Z,6.39
2019-03-18T00:32:49.112Z,6.53
2019-03-18T00:33:49.115Z,6.42
2019-03-18T00:34:49.089Z,6.47
2019-03-18T00:35:49.106Z,6.45
2019-03-18T00:36:49.066Z,6.44
2019-03-18T00:37:49.071Z,6.45
2019-03-18T00:38:49.081Z,6.42
2019-03-18T00:39:49.037Z,6.42
2019-03-18T00:40:49.023Z,6.45
2019-03-18T00:41:49.008Z,6.44
2019-03-18T00:42:49.030Z,6.49
2019-03-18T00:43:49.009Z,6.41
2019-03-18T00:44:48.979Z,6.44
2019-03-18T00:45:48.987Z,6.39
2019-03-18T00:46:48.972Z,6.48
2019-03-18T00:47:48.945Z,6.30
2019-03-18T00:48:48.958Z,6.32
2019-03-18T00:49:48.933Z,6.34
2019-03-18T00:50:48.917Z,6.37
2019-03-18T00:51:48.902Z,6.29
2019-03-18T00:52:48.928Z,6.19
2019-03-18T00:53:48.915Z,6.22
2019-03-18T00:54:48.864Z,6.21
2019-03-18T00:55:51.615Z,6.26
2019-03-18T00:56:48.863Z,6.19
2019-03-18T00:57:48.861Z,6.22
2019-03-18T00:58:48.842Z,6.19
2019-03-18T00:59:48.995Z,6.10
2019-03-18T01:00:48.887Z,6.21
2019-03-18T01:01:48.792Z,6.10
2019-03-18T01:02:49.621Z,5.98
2019-03-18T01:03:48.783Z,6.04
2019-03-18T01:04:48.775Z,5.98
2019-03-18T01:05:48.753Z,5.98
2019-03-18T01:06:48.733Z,5.90
2019-03-18T01:07:48.731Z,5.85
2019-03-18T01:08:48.731Z,5.83
2019-03-18T01:09:48.720Z,5.77
2019-03-18T01:10:48.714Z,5.68
2019-03-18T01:11:48.673Z,5.68
2019-03-18T01:12:48.679Z,5.65
2019-03-18T01:13:48.664Z,5.71
2019-03-18T01:14:48.671Z,5.69
2019-03-18T01:15:48.665Z,5.71
2019-03-18T01:16:48.703Z,5.65
2019-03-18T01:17:48.622Z,5.57
2019-03-18T01:18:48.604Z,5.59
2019-03-18T01:19:48.615Z,5.54
2019-03-18T01:20:48.615Z,5.61
2019-03-18T01:21:48.574Z,5.49
2019-03-18T01:22:48.570Z,5.49
2019-03-18T01:23:48.571Z,5.46
2019-03-18T01:24:48.564Z,5.51
2019-03-18T01:25:48.528Z,5.54
2019-03-18T01:26:48.529Z,5.47
2019-03-18T01:27:48.536Z,5.51
2019-03-18T01:28:48.494Z,5.43
2019-03-18T01:29:48.510Z,5.53
2019-03-18T01:30:48.482Z,5.49
2019-03-18T01:31:48.466Z,5.54
2019-03-18T01:32:48.449Z,5.44
2019-03-18T01:33:48.451Z,5.44
2019-03-18T01:34:48.451Z,5.47
2019-03-18T01:35:48.418Z,5.46
2019-03-18T01:36:48.416Z,5.47
2019-03-18T01:37:48.401Z,5.49
2019-03-18T01:38:48.380Z,5.51
2019-03-18T01:39:48.395Z,5.43
2019-03-18T01:40:48.361Z,5.43
2019-03-18T01:41:48.369Z,5.44
2019-03-18T01:42:48.378Z,5.39
2019-03-18T01:43:48.330Z,5.43
2019-03-18T01:44:48.351Z,5.44
2019-03-18T01:45:48.338Z,5.43
2019-03-18T01:46:48.294Z,5.42
2019-03-18T01:47:48.292Z,5.46
2019-03-18T01:48:48.277Z,5.44
2019-03-18T01:49:48.280Z,5.46
2019-03-18T01:50:48.258Z,5.54
2019-03-18T01:51:48.245Z,5.51
2019-03-18T01:52:48.236Z,5.47
2019-03-18T01:53:48.230Z,5.50
2019-03-18T01:54:48.242Z,5.46
2019-03-18T01:55:48.197Z,5.51
2019-03-18T01:56:48.194Z,5.44
2019-03-18T01:57:48.178Z,5.46
2019-03-18T01:58:48.168Z,5.53
2019-03-18T01:59:48.462Z,5.61
2019-03-18T02:00:48.148Z,5.51
2019-03-18T02:01:48.128Z,5.53
2019-03-18T02:02:48.154Z,5.50
2019-03-18T02:03:48.111Z,5.46
2019-03-18T02:04:48.115Z,5.40
2019-03-18T02:05:48.086Z,5.40
2019-03-18T02:06:48.072Z,5.44
2019-03-18T02:07:48.067Z,5.43
2019-03-18T02:08:48.074Z,5.39
2019-03-18T02:09:48.109Z,5.33
2019-03-18T02:10:48.042Z,5.35
2019-03-18T02:11:48.020Z,5.29
2019-03-18T02:12:48.016Z,5.31
2019-03-18T02:13:48.013Z,5.28
2019-03-18T02:14:48.008Z,5.32
2019-03-18T02:15:53.286Z,5.39
2019-03-18T02:16:48.975Z,5.42
2019-03-18T02:17:47.970Z,5.39
2019-03-18T02:18:47.940Z,5.40
2019-03-18T02:19:47.987Z,5.32
2019-03-18T02:20:47.923Z,5.24
2019-03-18T02:21:47.915Z,5.26
2019-03-18T02:22:47.919Z,5.25
2019-03-18T02:23:47.892Z,5.19
2019-03-18T02:24:47.885Z,5.17
2019-03-18T02:25:47.894Z,5.14
2019-03-18T02:26:47.860Z,5.24
2019-03-18T02:27:47.843Z,5.14
2019-03-18T02:28:47.843Z,5.21
2019-03-18T02:29:47.834Z,5.26
2019-03-18T02:30:47.858Z,5.19
2019-03-18T02:31:47.798Z,5.16
2019-03-18T02:32:47.924Z,5.16
2019-03-18T02:33:47.790Z,5.24
2019-03-18T02:34:47.779Z,5.31
2019-03-18T02:35:47.781Z,5.26
2019-03-18T02:36:47.762Z,5.17
2019-03-18T02:37:47.745Z,5.16
2019-03-18T02:38:47.719Z,5.22
2019-03-18T02:39:47.738Z,5.25
2019-03-18T02:40:47.730Z,5.19
2019-03-18T02:41:47.695Z,5.19
2019-03-18T02:42:47.695Z,5.25
2019-03-18T02:43:47.670Z,5.16
2019-03-18T02:44:47.687Z,5.13
2019-03-18T02:45:47.680Z,5.16
2019-03-18T02:46:47.635Z,5.13
2019-03-18T02:47:47.636Z,5.16
2019-03-18T02:48:47.619Z,5.17
2019-03-18T02:49:47.597Z,5.17
2019-03-18T02:50:47.619Z,5.11
2019-03-18T02:51:47.577Z,5.14
2019-03-18T02:52:47.597Z,5.19
2019-03-18T02:53:47.567Z,5.16
2019-03-18T02:54:47.542Z,5.07
2019-03-18T02:55:47.561Z,5.06
2019-03-18T02:56:47.628Z,5.03
2019-03-18T02:57:47.510Z,5.10
2019-03-18T02:58:47.504Z,5.04
2019-03-18T02:59:47.505Z,5.07
2019-03-18T03:00:47.497Z,5.04
2019-03-18T03:01:47.471Z,5.08
2019-03-18T03:02:47.494Z,5.03
2019-03-18T03:03:47.453Z,5.13
2019-03-18T03:04:47.441Z,5.07
2019-03-18T03:05:47.484Z,4.99
2019-03-18T03:06:47.421Z,5.04
2019-03-18T03:07:47.399Z,5.06
2019-03-18T03:08:47.402Z,5.04
2019-03-18T03:09:47.377Z,5.07
2019-03-18T03:10:47.382Z,5.04
2019-03-18T03:11:47.359Z,5.07
2019-03-18T03:12:47.339Z,5.11
2019-03-18T03:13:47.337Z,5.10
2019-03-18T03:14:47.323Z,5.10
2019-03-18T03:15:47.336Z,5.08
2019-03-18T03:16:47.330Z,5.08
2019-03-18T03:17:47.287Z,4.96
2019-03-18T03:18:47.293Z,5.06
2019-03-18T03:19:47.270Z,4.96
2019-03-18T03:20:47.279Z,5.03
2019-03-18T03:21:47.288Z,4.98
2019-03-18T03:22:47.273Z,5.04
2019-03-18T03:23:47.223Z,5.01
2019-03-18T03:24:47.219Z,5.03
2019-03-18T03:25:47.216Z,4.96
2019-03-18T03:26:47.198Z,5.01
2019-03-18T03:27:47.215Z,4.96
2019-03-18T03:28:47.171Z,4.99
2019-03-18T03:29:47.160Z,4.98
2019-03-18T03:30:47.214Z,5.04
2019-03-18T03:31:47.137Z,5.06
2019-03-18T03:32:47.130Z,5.01
2019-03-18T03:33:47.140Z,4.99
2019-03-18T03:34:47.105Z,4.93
2019-03-18T03:35:47.131Z,4.99
2019-03-18T03:36:47.099Z,4.95
2019-03-18T03:37:47.098Z,5.01
2019-03-18T03:38:47.068Z,5.07
2019-03-18T03:39:47.051Z,4.96
2019-03-18T03:40:47.072Z,5.08
2019-03-18T03:41:47.024Z,5.06
2019-03-18T03:42:47.024Z,5.07
2019-03-18T03:43:47.014Z,5.01
2019-03-18T03:44:47.013Z,4.99
2019-03-18T03:45:47.007Z,5.04
2019-03-18T03:46:46.973Z,5.03
2019-03-18T03:47:46.999Z,4.99
2019-03-18T03:48:47.042Z,5.01
2019-03-18T03:49:46.949Z,5.06
2019-03-18T03:50:46.959Z,5.03
2019-03-18T03:51:46.994Z,5.08
2019-03-18T03:52:46.906Z,5.04
2019-03-18T03:53:46.895Z,5.07
2019-03-18T03:54:46.880Z,5.07
2019-03-18T03:55:46.918Z,4.99
2019-03-18T03:56:46.897Z,4.99
2019-03-18T03:57:46.851Z,5.01
2019-03-18T03:58:46.834Z,4.99
2019-03-18T03:59:46.831Z,4.98
2019-03-18T04:00:46.851Z,5.06
2019-03-18T04:01:46.810Z,4.93
2019-03-18T04:02:46.796Z,4.95
2019-03-18T04:03:46.812Z,4.86
2019-03-18T04:04:46.770Z,4.89
2019-03-18T04:05:46.771Z,4.89
2019-03-18T04:06:46.778Z,4.85
2019-03-18T04:07:46.744Z,4.99
2019-03-18T04:08:46.733Z,4.98
2019-03-18T04:09:46.714Z,4.93
2019-03-18T04:10:46.705Z,4.98
2019-03-18T04:11:46.723Z,5.04
2019-03-18T04:12:46.711Z,5.08
2019-03-18T04:13:46.677Z,5.01
2019-03-18T04:14:46.707Z,5.03
2019-03-18T04:15:46.655Z,5.06
2019-03-18T04:17:00.732Z,5.06
2019-03-18T04:17:47.656Z,5.04
2019-03-18T04:18:46.634Z,4.98
2019-03-18T04:19:46.605Z,5.06
2019-03-18T04:20:46.622Z,5.03
2019-03-18T04:21:50.333Z,5.06
2019-03-18T04:22:46.583Z,5.06
2019-03-18T04:23:46.567Z,4.98
2019-03-18T04:24:46.581Z,5.01
2019-03-18T04:25:46.546Z,4.99
2019-03-18T04:26:46.549Z,4.95
2019-03-18T04:27:46.515Z,4.98
2019-03-18T04:28:46.530Z,4.99
2019-03-18T04:29:46.496Z,4.95
2019-03-18T04:30:46.485Z,4.93
2019-03-18T04:31:46.491Z,5.01
2019-03-18T04:32:46.489Z,5.06
2019-03-18T04:33:46.457Z,5.08
2019-03-18T04:34:46.441Z,5.03
2019-03-18T04:35:46.435Z,5.07
2019-03-18T04:36:46.466Z,5.07
2019-03-18T04:37:46.404Z,5.17
2019-03-18T04:38:46.387Z,5.16
2019-03-18T04:39:46.650Z,5.13
2019-03-18T04:40:46.376Z,5.13
2019-03-18T04:41:46.376Z,5.21
2019-03-18T04:42:46.347Z,5.21
2019-03-18T04:43:46.332Z,5.21
2019-03-18T04:44:46.330Z,5.24
2019-03-18T04:45:46.313Z,5.25
2019-03-18T04:46:46.317Z,5.26
2019-03-18T04:47:46.323Z,5.21
2019-03-18T04:48:46.280Z,5.21
2019-03-18T04:49:46.270Z,5.19
2019-03-18T04:50:46.265Z,5.21
2019-03-18T04:51:46.266Z,5.24
2019-03-18T04:52:46.252Z,5.17
2019-03-18T04:53:46.231Z,5.21
2019-03-18T04:54:46.226Z,5.16
2019-03-18T04:55:46.207Z,5.16
2019-03-18T04:56:46.240Z,5.21
2019-03-18T04:57:46.187Z,5.24
2019-03-18T04:58:46.187Z,5.24
2019-03-18T04:59:46.157Z,5.26
2019-03-18T05:00:46.152Z,5.39
2019-03-18T05:01:46.156Z,5.43
2019-03-18T05:02:46.126Z,5.40
2019-03-18T05:03:46.124Z,5.39
2019-03-18T05:04:46.121Z,5.36
2019-03-18T05:05:46.095Z,5.33
2019-03-18T05:06:46.142Z,5.35
2019-03-18T05:07:46.087Z,5.35
2019-03-18T05:08:46.064Z,5.32
2019-03-18T05:09:46.060Z,5.29
2019-03-18T05:10:46.036Z,5.32
2019-03-18T05:11:46.057Z,5.31
2019-03-18T05:12:46.018Z,5.31
2019-03-18T05:13:46.130Z,5.32
2019-03-18T05:14:46.007Z,5.35
2019-03-18T05:15:45.989Z,5.33
2019-03-18T05:16:45.974Z,5.29
2019-03-18T05:17:46.014Z,5.28
2019-03-18T05:18:45.949Z,5.26
2019-03-18T05:19:45.935Z,5.17
2019-03-18T05:20:45.937Z,5.24
2019-03-18T05:21:45.916Z,5.21
2019-03-18T05:22:45.921Z,5.29
2019-03-18T05:23:45.894Z,5.19
2019-03-18T05:24:45.885Z,5.28
2019-03-18T05:25:45.876Z,5.24
2019-03-18T05:26:45.905Z,5.21
2019-03-18T05:27:45.881Z,5.31
2019-03-18T05:28:45.843Z,5.24
2019-03-18T05:29:45.832Z,5.25
2019-03-18T05:30:45.815Z,5.25
2019-03-18T05:31:45.810Z,5.28
2019-03-18T05:32:45.821Z,5.25
2019-03-18T05:33:45.796Z,5.25
2019-03-18T05:34:45.788Z,5.25
2019-03-18T05:35:45.779Z,5.28
2019-03-18T05:36:45.753Z,5.29
2019-03-18T05:37:45.759Z,5.31
2019-03-18T05:38:45.753Z,5.24
2019-03-18T05:39:45.725Z,5.28
2019-03-18T05:40:45.717Z,5.29
2019-03-18T05:41:45.719Z,5.24
2019-03-18T05:42:45.708Z,5.28
2019-03-18T05:43:45.677Z,5.28
2019-03-18T05:44:45.666Z,5.19
2019-03-18T05:45:45.682Z,5.26
2019-03-18T05:46:45.645Z,5.31
2019-03-18T05:47:45.649Z,5.22
2019-03-18T05:48:45.618Z,5.26
2019-03-18T05:49:45.613Z,5.28
2019-03-18T05:50:45.597Z,5.25
2019-03-18T05:51:45.584Z,5.24
2019-03-18T05:52:45.605Z,5.24
2019-03-18T05:53:45.591Z,5.21
2019-03-18T05:54:45.557Z,5.26
2019-03-18T05:55:45.544Z,5.32
2019-03-18T05:56:45.571Z,5.26
2019-03-18T05:57:45.543Z,5.26
2019-03-18T05:58:45.502Z,5.25
2019-03-18T05:59:45.495Z,5.26
2019-03-18T06:00:45.494Z,5.25
2019-03-18T06:01:45.473Z,5.28
2019-03-18T06:02:47.095Z,5.24
2019-03-18T06:03:45.457Z,5.26
2019-03-18T06:04:45.455Z,5.22
2019-03-18T06:05:45.433Z,5.17
2019-03-18T06:06:45.433Z,5.29
2019-03-18T06:07:45.451Z,5.22
2019-03-18T06:08:45.409Z,5.28
2019-03-18T06:09:45.403Z,5.36
2019-03-18T06:10:45.419Z,5.42
2019-03-18T06:11:45.376Z,5.47
2019-03-18T06:12:45.387Z,5.39
2019-03-18T06:13:45.349Z,5.42
2019-03-18T06:14:45.343Z,5.40
2019-03-18T06:15:45.325Z,5.43
2019-03-18T06:16:45.307Z,5.44
2019-03-18T06:17:52.302Z,5.47
2019-03-18T06:18:46.289Z,5.43
2019-03-18T06:19:45.278Z,5.47
2019-03-18T06:20:45.278Z,5.44
2019-03-18T06:21:45.278Z,5.36
2019-03-18T06:22:45.282Z,5.44
2019-03-18T06:23:45.241Z,5.35
2019-03-18T06:24:45.223Z,5.44
2019-03-18T06:25:45.253Z,5.46
2019-03-18T06:26:45.204Z,5.49
2019-03-18T06:27:45.216Z,5.51
2019-03-18T06:28:45.392Z,5.59
2019-03-18T06:29:45.195Z,5.58
2019-03-18T06:30:45.159Z,5.57
2019-03-18T06:31:45.160Z,5.61
2019-03-18T06:32:45.177Z,5.53
2019-03-18T06:33:45.132Z,5.57
2019-03-18T06:34:45.172Z,5.59
2019-03-18T06:35:45.117Z,5.51
2019-03-18T06:36:45.132Z,5.57
2019-03-18T06:37:45.190Z,5.49
2019-03-18T06:38:45.070Z,5.49
2019-03-18T06:39:45.059Z,5.49
2019-03-18T06:40:45.061Z,5.53
2019-03-18T06:41:45.051Z,5.53
2019-03-18T06:42:45.070Z,5.43
2019-03-18T06:43:45.010Z,5.42
2019-03-18T06:44:45.003Z,5.46
2019-03-18T06:45:45.014Z,5.47
2019-03-18T06:46:45.036Z,5.39
2019-03-18T06:47:44.972Z,5.40
2019-03-18T06:48:44.976Z,5.42
2019-03-18T06:49:44.948Z,5.33
2019-03-18T06:50:44.962Z,5.26
2019-03-18T06:51:44.937Z,5.29
2019-03-18T06:52:44.926Z,5.29
2019-03-18T06:53:44.937Z,5.33
2019-03-18T06:54:44.892Z,5.33
2019-03-18T06:55:44.884Z,5.28
2019-03-18T06:56:44.895Z,5.32
2019-03-18T06:57:44.877Z,5.33
2019-03-18T06:58:44.914Z,5.32
2019-03-18T06:59:44.848Z,5.31
2019-03-18T07:00:44.848Z,5.40
2019-03-18T07:01:44.866Z,5.40
2019-03-18T07:02:44.826Z,5.43
2019-03-18T07:03:44.842Z,5.49
2019-03-18T07:04:44.907Z,5.43
2019-03-18T07:05:46.229Z,5.53
2019-03-18T07:06:44.796Z,5.61
2019-03-18T07:07:44.869Z,5.51
2019-03-18T07:08:44.846Z,5.65
2019-03-18T07:09:44.726Z,5.67
2019-03-18T07:10:44.720Z,5.72
2019-03-18T07:11:44.721Z,5.82
2019-03-18T07:12:44.740Z,5.83
2019-03-18T07:13:44.731Z,5.86
2019-03-18T07:14:44.690Z,5.89
2019-03-18T07:15:44.761Z,5.98
2019-03-18T07:16:44.672Z,5.95
2019-03-18T07:17:44.664Z,6.05
2019-03-18T07:18:44.669Z,6.07
2019-03-18T07:19:44.621Z,6.10
2019-03-18T07:20:44.684Z,6.08
2019-03-18T07:21:44.668Z,6.22
2019-03-18T07:22:44.609Z,6.13
2019-03-18T07:23:44.605Z,6.05
2019-03-18T07:24:44.616Z,6.04
2019-03-18T07:25:44.565Z,6.00
2019-03-18T07:26:44.571Z,6.05
2019-03-18T07:27:44.561Z,6.07
2019-03-18T07:28:44.563Z,6.04
2019-03-18T07:29:44.512Z,5.98
2019-03-18T07:30:44.495Z,5.80
2019-03-18T07:31:44.499Z,5.92
2019-03-18T07:32:44.534Z,5.97
2019-03-18T07:33:44.489Z,5.83
2019-03-18T07:34:44.476Z,5.89
2019-03-18T07:35:44.451Z,5.80
2019-03-18T07:36:44.478Z,5.86
2019-03-18T07:37:44.442Z,5.89
2019-03-18T07:38:44.415Z,5.94
2019-03-18T07:39:44.453Z,6.04
2019-03-18T07:40:44.393Z,6.05
2019-03-18T07:41:44.381Z,6.01
2019-03-18T07:42:44.421Z,6.05
2019-03-18T07:43:44.371Z,6.07
2019-03-18T07:44:44.377Z,6.07
2019-03-18T07:45:44.339Z,6.07
2019-03-18T07:46:44.316Z,6.10
2019-03-18T07:47:44.309Z,6.01
2019-03-18T07:48:44.308Z,6.07
2019-03-18T07:49:44.336Z,6.07
2019-03-18T07:50:44.313Z,6.01
2019-03-18T07:51:44.264Z,6.15
2019-03-18T07:52:44.255Z,6.18
2019-03-18T07:53:44.249Z,6.19
2019-03-18T07:54:44.259Z,6.22
2019-03-18T07:55:44.227Z,6.32
2019-03-18T07:56:44.223Z,6.26
2019-03-18T07:57:44.201Z,6.32
2019-03-18T07:58:44.189Z,6.34
2019-03-18T07:59:44.458Z,6.32
2019-03-18T08:00:44.304Z,6.39
2019-03-18T08:01:44.153Z,6.34
2019-03-18T08:02:44.169Z,6.38
2019-03-18T08:03:44.204Z,6.39
2019-03-18T08:04:44.445Z,6.42
2019-03-18T08:05:44.156Z,6.34
2019-03-18T08:06:44.129Z,6.45
2019-03-18T08:07:44.089Z,6.45
2019-03-18T08:08:44.096Z,6.49
2019-03-18T08:09:44.420Z,6.44
2019-03-18T08:10:44.058Z,6.48
2019-03-18T08:11:44.067Z,6.41
2019-03-18T08:12:44.030Z,6.45
2019-03-18T08:13:44.023Z,6.45
2019-03-18T08:14:44.029Z,6.45
2019-03-18T08:15:44.005Z,6.53
2019-03-18T08:16:44.013Z,6.45
2019-03-18T08:17:43.996Z,6.47
2019-03-18T08:18:43.965Z,6.48
2019-03-18T08:19:44.071Z,6.53
2019-03-18T08:20:43.951Z,6.49
2019-03-18T08:21:43.949Z,6.53
2019-03-18T08:22:43.925Z,6.49
2019-03-18T08:23:43.940Z,6.39
2019-03-18T08:24:43.953Z,6.48
2019-03-18T08:25:43.959Z,6.47
2019-03-18T08:26:43.894Z,6.55
2019-03-18T08:27:43.875Z,6.41
2019-03-18T08:28:43.867Z,6.49
2019-03-18T08:29:43.853Z,6.45
2019-03-18T08:30:43.857Z,6.55
2019-03-18T08:31:43.830Z,6.44
2019-03-18T08:32:43.833Z,6.59
2019-03-18T08:33:43.808Z,6.62
2019-03-18T08:34:43.815Z,6.63
2019-03-18T08:35:43.810Z,6.67
2019-03-18T08:36:43.771Z,6.65
2019-03-18T08:37:43.762Z,6.62
2019-03-18T08:38:43.756Z,6.66
2019-03-18T08:39:43.750Z,6.66
2019-03-18T08:40:43.742Z,6.67
2019-03-18T08:41:43.711Z,6.66
2019-03-18T08:42:43.700Z,6.70
2019-03-18T08:43:43.709Z,6.71
2019-03-18T08:44:43.697Z,6.71
2019-03-18T08:45:43.697Z,6.71
2019-03-18T08:46:43.654Z,6.73
2019-03-18T08:47:43.670Z,6.74
2019-03-18T08:48:55.135Z,6.77
2019-03-18T08:49:44.678Z,6.83
2019-03-18T08:50:43.638Z,6.85
2019-03-18T08:51:43.614Z,6.83
2019-03-18T08:52:43.593Z,6.85
2019-03-18T08:53:43.582Z,6.83
2019-03-18T08:54:43.578Z,6.89
2019-03-18T08:55:43.578Z,6.91
2019-03-18T08:56:43.551Z,6.93
2019-03-18T08:57:43.554Z,6.88
2019-03-18T08:58:43.534Z,6.83
2019-03-18T08:59:43.518Z,6.84
2019-03-18T09:00:43.518Z,6.88
2019-03-18T09:01:43.492Z,6.91
2019-03-18T09:02:43.484Z,6.92
2019-03-18T09:03:43.471Z,6.93
2019-03-18T09:04:43.461Z,6.96
2019-03-18T09:05:43.461Z,6.96
2019-03-18T09:06:43.438Z,6.92
2019-03-18T09:07:43.435Z,6.96
2019-03-18T09:08:43.428Z,6.93
2019-03-18T09:09:43.412Z,6.91
2019-03-18T09:10:43.453Z,6.98
2019-03-18T09:11:43.383Z,6.93
2019-03-18T09:12:43.389Z,6.98
2019-03-18T09:13:43.368Z,7.03
2019-03-18T09:14:43.363Z,6.91
2019-03-18T09:15:43.379Z,6.92
2019-03-18T09:16:43.334Z,6.95
2019-03-18T09:17:43.321Z,6.98
2019-03-18T09:18:43.310Z,6.84
2019-03-18T09:19:43.316Z,6.89
2019-03-18T09:20:43.317Z,6.96
2019-03-18T09:21:43.272Z,6.84
2019-03-18T09:22:43.262Z,6.98
2019-03-18T09:23:43.251Z,6.89
2019-03-18T09:24:43.237Z,7.03
2019-03-18T09:25:43.244Z,7.02
2019-03-18T09:26:43.226Z,7.05
2019-03-18T09:27:43.251Z,7.08
2019-03-18T09:28:43.256Z,6.98
2019-03-18T09:29:43.182Z,7.07
2019-03-18T09:30:43.227Z,7.00
2019-03-18T09:31:43.160Z,7.16
2019-03-18T09:32:43.147Z,7.23
2019-03-18T09:33:43.139Z,7.29
2019-03-18T09:34:43.122Z,7.32
2019-03-18T09:35:43.148Z,7.38
2019-03-18T09:36:43.120Z,7.38
2019-03-18T09:37:43.093Z,7.41
2019-03-18T09:38:43.078Z,7.44
2019-03-18T09:39:43.066Z,7.49
2019-03-18T09:40:43.078Z,7.52
2019-03-18T09:41:43.075Z,7.52
2019-03-18T09:42:43.043Z,7.59
2019-03-18T09:43:43.021Z,7.54
2019-03-18T09:44:43.069Z,7.57
2019-03-18T09:45:43.036Z,7.57
2019-03-18T09:46:42.987Z,7.54
2019-03-18T09:47:43.039Z,7.57
2019-03-18T09:48:42.963Z,7.60
2019-03-18T09:49:42.954Z,7.54
2019-03-18T09:50:42.941Z,7.56
2019-03-18T09:51:42.959Z,7.54
2019-03-18T09:52:42.944Z,7.54
2019-03-18T09:53:42.933Z,7.52
2019-03-18T09:54:42.961Z,7.56
2019-03-18T09:55:42.883Z,7.52
2019-03-18T09:56:42.890Z,7.54
2019-03-18T09:57:42.878Z,7.56
2019-03-18T09:58:42.945Z,7.59
2019-03-18T09:59:42.856Z,7.56
2019-03-18T10:00:42.830Z,7.59
2019-03-18T10:01:44.544Z,7.56
2019-03-18T10:02:42.817Z,7.59
2019-03-18T10:03:42.815Z,7.54
2019-03-18T10:04:42.791Z,7.52
2019-03-18T10:05:43.928Z,7.59
2019-03-18T10:06:42.779Z,7.56
2019-03-18T10:07:42.756Z,7.50
2019-03-18T10:08:42.742Z,7.54
2019-03-18T10:09:42.782Z,7.50
2019-03-18T10:10:42.750Z,7.50
2019-03-18T10:11:42.723Z,7.50
2019-03-18T10:12:42.697Z,7.50
2019-03-18T10:13:42.718Z,7.52
2019-03-18T10:14:42.673Z,7.46
2019-03-18T10:15:42.665Z,7.46
2019-03-18T10:16:42.670Z,7.42
2019-03-18T10:17:42.684Z,7.35
2019-03-18T10:18:42.623Z,7.38
2019-03-18T10:19:42.621Z,7.36
2019-03-18T10:20:42.655Z,7.39
2019-03-18T10:21:42.640Z,7.50
2019-03-18T10:22:42.579Z,7.49
2019-03-18T10:23:42.671Z,7.56
2019-03-18T10:24:42.555Z,7.53
2019-03-18T10:25:42.551Z,7.54
2019-03-18T10:26:42.559Z,7.41
2019-03-18T10:27:42.521Z,7.47
2019-03-18T10:28:42.512Z,7.41
2019-03-18T10:29:42.513Z,7.46
2019-03-18T10:30:42.495Z,7.53
2019-03-18T10:31:42.508Z,7.53
2019-03-18T10:32:42.465Z,7.49
2019-03-18T10:33:44.862Z,7.49
2019-03-18T10:34:42.460Z,7.49
2019-03-18T10:35:42.434Z,7.44
2019-03-18T10:36:42.448Z,7.52
2019-03-18T10:37:42.414Z,7.50
2019-03-18T10:38:43.306Z,7.59
2019-03-18T10:39:42.533Z,7.87
2019-03-18T10:40:42.400Z,9.15
2019-03-18T10:41:42.382Z,9.47
2019-03-18T10:42:42.388Z,9.28
2019-03-18T10:43:42.385Z,9.18
2019-03-18T10:44:42.331Z,9.08
2019-03-18T10:45:42.319Z,9.06
2019-03-18T10:46:42.372Z,9.29
2019-03-18T10:47:42.314Z,9.44
2019-03-18T10:48:42.295Z,9.15
2019-03-18T10:49:46.296Z,9.18
2019-03-18T10:50:42.275Z,9.08
2019-03-18T10:51:42.265Z,8.96
2019-03-18T10:52:42.261Z,8.87
2019-03-18T10:53:44.534Z,8.90
2019-03-18T10:54:42.258Z,8.78
2019-03-18T10:55:42.206Z,8.78
2019-03-18T10:56:42.242Z,8.77
2019-03-18T10:57:42.203Z,8.69
2019-03-18T10:58:42.180Z,8.62
2019-03-18T10:59:42.166Z,8.60
2019-03-18T11:00:42.210Z,8.52
2019-03-18T11:01:42.170Z,8.60
2019-03-18T11:02:44.800Z,8.51
2019-03-18T11:03:42.125Z,8.47
2019-03-18T11:04:42.105Z,8.41
2019-03-18T11:05:42.107Z,8.41
2019-03-18T11:06:42.111Z,8.38
2019-03-18T11:07:42.074Z,8.30
2019-03-18T11:08:42.072Z,8.34
2019-03-18T11:09:42.064Z,8.36
2019-03-18T11:10:42.045Z,8.34
2019-03-18T11:11:42.058Z,8.27
2019-03-18T11:12:42.019Z,8.31
2019-03-18T11:13:42.016Z,8.26
2019-03-18T11:14:42.002Z,8.21
2019-03-18T11:15:41.994Z,8.16
2019-03-18T11:16:41.978Z,8.12
2019-03-18T11:17:41.993Z,7.98
2019-03-18T11:18:41.988Z,7.98
2019-03-18T11:19:41.946Z,7.97
2019-03-18T11:20:42.015Z,8.02
2019-03-18T11:21:41.921Z,8.08
2019-03-18T11:22:41.988Z,8.44
2019-03-18T11:23:41.903Z,9.25
2019-03-18T11:24:41.897Z,8.95
2019-03-18T11:25:41.882Z,8.84
2019-03-18T11:26:41.874Z,8.70
2019-03-18T11:27:41.870Z,8.59
2019-03-18T11:28:41.989Z,8.52
2019-03-18T11:29:41.828Z,9.59
2019-03-18T11:30:41.817Z,10.90
2019-03-18T11:31:41.814Z,11.84
2019-03-18T11:32:41.841Z,12.63
2019-03-18T11:33:41.793Z,13.56
2019-03-18T11:34:41.798Z,14.30
2019-03-18T11:35:41.766Z,14.99
2019-03-18T11:36:41.835Z,15.73
2019-03-18T11:37:41.858Z,16.50
2019-03-18T11:38:41.732Z,17.19
2019-03-18T11:39:41.721Z,17.64
2019-03-18T11:40:41.730Z,18.16
2019-03-18T11:41:41.698Z,18.33
2019-03-18T11:42:41.821Z,18.77
2019-03-18T11:43:41.678Z,18.71
2019-03-18T11:44:41.679Z,18.26
2019-03-18T11:45:41.664Z,18.38
2019-03-18T11:46:41.644Z,17.80
2019-03-18T11:47:41.637Z,17.79
2019-03-18T11:48:41.641Z,16.91
2019-03-18T11:49:41.641Z,16.75
2019-03-18T11:50:41.661Z,16.29
2019-03-18T11:51:41.582Z,15.82
2019-03-18T11:52:41.571Z,15.94
2019-03-18T11:53:41.580Z,15.40
2019-03-18T11:54:41.555Z,15.21
2019-03-18T11:55:41.545Z,14.66
2019-03-18T11:56:41.536Z,14.26
2019-03-18T11:57:41.523Z,13.77
2019-03-18T11:58:41.538Z,13.56
2019-03-18T11:59:41.496Z,13.15
2019-03-18T12:00:41.486Z,12.85
2019-03-18T12:01:41.477Z,12.54
2019-03-18T12:02:41.473Z,12.36
2019-03-18T12:03:41.484Z,12.06
2019-03-18T12:04:41.440Z,11.87
2019-03-18T12:05:41.438Z,11.69
2019-03-18T12:06:41.440Z,11.53
2019-03-18T12:07:41.426Z,11.41
2019-03-18T12:08:41.433Z,11.14
2019-03-18T12:09:41.488Z,10.92
2019-03-18T12:10:41.387Z,11.79
2019-03-18T12:11:41.353Z,11.47
2019-03-18T12:12:41.357Z,11.26
2019-03-18T12:13:41.371Z,11.01
2019-03-18T12:14:41.354Z,10.96
2019-03-18T12:15:41.333Z,10.92
2019-03-18T12:16:41.312Z,10.86
2019-03-18T12:17:41.307Z,10.93
2019-03-18T12:18:41.309Z,11.14
2019-03-18T12:19:42.488Z,12.50
2019-03-18T12:20:41.257Z,13.60
2019-03-18T12:21:41.259Z,14.30
2019-03-18T12:22:41.239Z,14.95
2019-03-18T12:23:41.309Z,15.57
2019-03-18T12:24:41.343Z,16.26
2019-03-18T12:25:41.216Z,16.71
2019-03-18T12:26:41.200Z,17.20
2019-03-18T12:27:41.203Z,17.38
2019-03-18T12:28:41.216Z,17.80
2019-03-18T12:29:41.216Z,17.98
2019-03-18T12:30:41.182Z,18.07
2019-03-18T12:31:41.134Z,17.12
2019-03-18T12:32:41.311Z,16.35
2019-03-18T12:33:41.153Z,15.79
2019-03-18T12:34:41.114Z,15.18
2019-03-18T12:35:41.799Z,14.61
2019-03-18T12:36:41.095Z,14.14
2019-03-18T12:37:41.155Z,13.72
2019-03-18T12:38:41.079Z,13.45
2019-03-18T12:39:41.051Z,13.15
2019-03-18T12:40:41.043Z,12.87
2019-03-18T12:41:41.029Z,12.65
2019-03-18T12:42:41.033Z,12.47
2019-03-18T12:43:41.359Z,12.27
2019-03-18T12:44:40.985Z,12.14
2019-03-18T12:45:40.985Z,11.91
2019-03-18T12:46:40.994Z,11.86
2019-03-18T12:47:40.964Z,11.63
2019-03-18T12:48:40.973Z,11.46
2019-03-18T12:49:42.057Z,11.26
2019-03-18T12:50:55.055Z,11.15
2019-03-18T12:51:41.923Z,10.95
2019-03-18T12:52:40.904Z,10.83
2019-03-18T12:53:40.911Z,10.72
2019-03-18T12:54:40.909Z,10.60
2019-03-18T12:55:40.877Z,10.64
2019-03-18T12:56:40.861Z,10.75
2019-03-18T12:57:40.867Z,10.90
2019-03-18T12:58:40.850Z,10.77
2019-03-18T12:59:40.832Z,10.59
2019-03-18T13:00:40.805Z,10.41
2019-03-18T13:01:40.807Z,10.33
2019-03-18T13:02:40.814Z,10.20
2019-03-18T13:03:40.810Z,10.12
2019-03-18T13:04:40.779Z,10.13
2019-03-18T13:05:40.754Z,9.98
2019-03-18T13:06:40.742Z,10.10
2019-03-18T13:07:40.742Z,10.08
2019-03-18T13:08:40.739Z,10.09
2019-03-18T13:09:40.726Z,9.97
2019-03-18T13:10:40.717Z,10.04
2019-03-18T13:11:40.697Z,10.12
2019-03-18T13:12:40.681Z,10.23
2019-03-18T13:13:40.671Z,10.34
2019-03-18T13:14:40.679Z,10.41
2019-03-18T13:15:40.653Z,10.46